Charlottesville, VA (22904)

3:41 AM EDT on August 31, 2014 (GMT -0400)
Charlottesville 2W: McCormick Observatory | Change Station
CLOSE
Current Station
Personal Weather Station
Location: Charlottesville, VA
Elevation: 866 ft
Nearby Weather Stations

Elev 866 ft 38.03 °N, 78.52 °W | Updated 36 seconds ago

Clear
Clear
71.9 °F
Feels Like 71.9 °F
N
1.0
Wind Variable Wind from SW
Gusts 3.0 mph

Today
High -- | Low -- °F
--% Chance of Precip.
Yesterday
High -- | Low -- °F
Precip. -- in
6:42 AM 7:44 PM
Waxing Crescent, 28% visible
Pressure 30.11 in
Visibility 8.0 miles
Clouds Few 3700 ft
Few 4800 ft
Dew Point 69 °F
Humidity 92%
Rainfall 0.00 in
Snow Depth Not available.
UV 0 out of 12
Pollen 9.50 out of 12
Air Quality Not available.
Flu Activity Not available.
METAR KCHO 310653Z AUTO 17007KT 8SM FEW037 FEW048 23/22 A3013 RMK AO2 SLP195 T02330217

More Conditions Fewer Conditions

Pressure 30.11 in
Visibility 8.0 miles
Clouds Few 3700 ft
Few 4800 ft
Dew Point 69 °F
Humidity 92%
Rainfall 0.00 in
Snow Depth Not available.
UV 0 out of 12
Pollen 9.50 out of 12
Air Quality Not available.
Flu Activity Not available.
METAR KCHO 310653Z AUTO 17007KT 8SM FEW037 FEW048 23/22 A3013 RMK AO2 SLP195 T02330217

More Conditions Fewer Conditions

10-Day Weather Forecast

Almanac

Astronomy

Aug. 31, 2014 Rise Set
Actual Time 6:42 AM EDT 7:44 PM EDT
Civil Twilight 6:15 AM EDT 8:11 PM EDT
Nautical Twilight 5:43 AM EDT 8:43 PM EDT
Astronomical Twilight 5:10 AM EDT 9:17 PM EDT
Moon 12:21 PM EDT 11:04 PM EDT
Length of Visible Light 13h 55m
Length of Day
13h 02m
Tomorrow will be 2m 21s shorter.
Waxing Crescent, 28% of the Moon is Illuminated
Today
Waxing Crescent
Sep 2
First Quarter
Sep 8
Full
Sep 15
Last Quarter
Sep 24
New

Today's Extremes

State Highs State Lows

Community

WunderPhotos

Upload Photos

1,748,809 photos uploaded!

Nearby

Snow Depth

Station Depth Elevation
No new snow has been reported.

Earthquake Activity

City Distance Mag. Time & Date
No recent earthquake activity has been reported nearby.
Minimum magnitude displayed is 2.5.

Coastal Water Temperatures

Place Temperature
No Stations Reporting

Nearby Weather Stations